sensor_id;sensor_type;location;lat;lon;timestamp;temperature;humidity
12268;DHT22;6196;48.398;11.736;2022-10-31T00:01:29;9.50;99.90
12268;DHT22;6196;48.398;11.736;2022-10-31T00:03:58;9.40;99.90
12268;DHT22;6196;48.398;11.736;2022-10-31T00:06:25;9.30;99.90
12268;DHT22;6196;48.398;11.736;2022-10-31T00:08:54;9.30;99.90
12268;DHT22;6196;48.398;11.736;2022-10-31T00:11:23;9.30;99.90
12268;DHT22;6196;48.398;11.736;2022-10-31T00:13:51;9.30;99.90
12268;DHT22;6196;48.398;11.736;2022-10-31T00:16:20;9.40;99.90
12268;DHT22;6196;48.398;11.736;2022-10-31T00:18:56;9.30;99.90
12268;DHT22;6196;48.398;11.736;2022-10-31T00:21:26;9.20;99.90
12268;DHT22;6196;48.398;11.736;2022-10-31T00:23:53;9.10;99.90
12268;DHT22;6196;48.398;11.736;2022-10-31T00:26:20;9.20;99.90
12268;DHT22;6196;48.398;11.736;2022-10-31T00:28:47;9.30;99.90
12268;DHT22;6196;48.398;11.736;2022-10-31T00:31:14;9.40;99.90
12268;DHT22;6196;48.398;11.736;2022-10-31T00:33:41;9.40;99.90
12268;DHT22;6196;48.398;11.736;2022-10-31T00:36:12;9.50;99.90
12268;DHT22;6196;48.398;11.736;2022-10-31T00:38:41;9.50;99.90
12268;DHT22;6196;48.398;11.736;2022-10-31T00:41:10;9.50;99.90
12268;DHT22;6196;48.398;11.736;2022-10-31T00:43:37;9.50;99.90
12268;DHT22;6196;48.398;11.736;2022-10-31T00:46:04;9.50;99.90
12268;DHT22;6196;48.398;11.736;2022-10-31T00:48:31;9.50;99.90
12268;DHT22;6196;48.398;11.736;2022-10-31T00:50:58;9.50;99.90
12268;DHT22;6196;48.398;11.736;2022-10-31T00:53:25;9.40;99.90
12268;DHT22;6196;48.398;11.736;2022-10-31T00:55:52;9.40;99.90
12268;DHT22;6196;48.398;11.736;2022-10-31T00:58:19;9.40;99.90
12268;DHT22;6196;48.398;11.736;2022-10-31T01:00:49;9.20;99.90
12268;DHT22;6196;48.398;11.736;2022-10-31T01:03:27;9.10;99.90
12268;DHT22;6196;48.398;11.736;2022-10-31T01:06:03;9.20;99.90
12268;DHT22;6196;48.398;11.736;2022-10-31T01:08:32;9.20;99.90
12268;DHT22;6196;48.398;11.736;2022-10-31T01:11:03;9.30;99.90
12268;DHT22;6196;48.398;11.736;2022-10-31T01:13:35;9.20;99.90
12268;DHT22;6196;48.398;11.736;2022-10-31T01:16:03;9.30;99.90
12268;DHT22;6196;48.398;11.736;2022-10-31T01:18:31;9.30;99.90
12268;DHT22;6196;48.398;11.736;2022-10-31T01:21:04;9.20;99.90
12268;DHT22;6196;48.398;11.736;2022-10-31T01:23:37;9.00;99.90
12268;DHT22;6196;48.398;11.736;2022-10-31T01:26:14;8.90;99.90
12268;DHT22;6196;48.398;11.736;2022-10-31T01:28:47;8.80;99.90
12268;DHT22;6196;48.398;11.736;2022-10-31T01:31:17;8.80;99.90
12268;DHT22;6196;48.398;11.736;2022-10-31T01:33:45;8.70;99.90
12268;DHT22;6196;48.398;11.736;2022-10-31T01:36:19;8.70;99.90
12268;DHT22;6196;48.398;11.736;2022-10-31T01:38:48;8.60;99.90
12268;DHT22;6196;48.398;11.736;2022-10-31T01:41:22;8.60;99.90
12268;DHT22;6196;48.398;11.736;2022-10-31T01:43:57;8.60;99.90
12268;DHT22;6196;48.398;11.736;2022-10-31T01:46:39;8.60;99.90
12268;DHT22;6196;48.398;11.736;2022-10-31T01:51:58;8.60;99.90
12268;DHT22;6196;48.398;11.736;2022-10-31T01:54:32;8.50;99.90
12268;DHT22;6196;48.398;11.736;2022-10-31T01:57:02;8.50;99.90
12268;DHT22;6196;48.398;11.736;2022-10-31T01:59:31;8.40;99.90
12268;DHT22;6196;48.398;11.736;2022-10-31T02:02:01;8.40;99.90
12268;DHT22;6196;48.398;11.736;2022-10-31T02:04:29;8.40;99.90
12268;DHT22;6196;48.398;11.736;2022-10-31T02:07:03;8.40;99.90
12268;DHT22;6196;48.398;11.736;2022-10-31T02:09:34;8.30;99.90
12268;DHT22;6196;48.398;11.736;2022-10-31T02:12:02;8.30;99.90
12268;DHT22;6196;48.398;11.736;2022-10-31T02:14:30;8.20;99.90
12268;DHT22;6196;48.398;11.736;2022-10-31T02:16:57;8.20;99.90
12268;DHT22;6196;48.398;11.736;2022-10-31T02:19:40;8.30;99.90
12268;DHT22;6196;48.398;11.736;2022-10-31T02:23:04;8.20;99.90
12268;DHT22;6196;48.398;11.736;2022-10-31T02:31:33;8.30;99.90
12268;DHT22;6196;48.398;11.736;2022-10-31T02:34:21;8.20;99.90
12268;DHT22;6196;48.398;11.736;2022-10-31T02:37:07;8.20;99.90
12268;DHT22;6196;48.398;11.736;2022-10-31T02:40:05;8.30;99.90
12268;DHT22;6196;48.398;11.736;2022-10-31T02:43:12;8.30;99.90
12268;DHT22;6196;48.398;11.736;2022-10-31T02:45:57;8.30;99.90
12268;DHT22;6196;48.398;11.736;2022-10-31T02:48:48;8.20;99.90
12268;DHT22;6196;48.398;11.736;2022-10-31T02:51:17;8.10;99.90
12268;DHT22;6196;48.398;11.736;2022-10-31T02:53:45;8.20;99.90
12268;DHT22;6196;48.398;11.736;2022-10-31T02:56:17;8.20;99.90
12268;DHT22;6196;48.398;11.736;2022-10-31T02:58:46;8.20;99.90
12268;DHT22;6196;48.398;11.736;2022-10-31T03:07:03;7.90;99.90
12268;DHT22;6196;48.398;11.736;2022-10-31T03:10:15;7.90;99.90
12268;DHT22;6196;48.398;11.736;2022-10-31T03:13:06;7.80;99.90
12268;DHT22;6196;48.398;11.736;2022-10-31T03:15:39;7.80;99.90
12268;DHT22;6196;48.398;11.736;2022-10-31T03:21:13;7.70;99.90
12268;DHT22;6196;48.398;11.736;2022-10-31T03:23:44;7.70;99.90
12268;DHT22;6196;48.398;11.736;2022-10-31T03:26:14;7.70;99.90
12268;DHT22;6196;48.398;11.736;2022-10-31T03:29:03;7.60;99.90
12268;DHT22;6196;48.398;11.736;2022-10-31T03:31:44;7.60;99.90
12268;DHT22;6196;48.398;11.736;2022-10-31T03:34:34;7.60;99.90
12268;DHT22;6196;48.398;11.736;2022-10-31T03:37:06;7.60;99.90
12268;DHT22;6196;48.398;11.736;2022-10-31T03:39:35;7.70;99.90
12268;DHT22;6196;48.398;11.736;2022-10-31T03:42:12;7.80;99.90
12268;DHT22;6196;48.398;11.736;2022-10-31T03:45:05;7.80;99.90
12268;DHT22;6196;48.398;11.736;2022-10-31T03:47:37;7.80;99.90
12268;DHT22;6196;48.398;11.736;2022-10-31T03:50:08;7.80;99.90
12268;DHT22;6196;48.398;11.736;2022-10-31T03:53:06;7.80;99.90
12268;DHT22;6196;48.398;11.736;2022-10-31T03:56:19;7.80;99.90
12268;DHT22;6196;48.398;11.736;2022-10-31T03:59:04;7.80;99.90
12268;DHT22;6196;48.398;11.736;2022-10-31T04:01:38;7.80;99.90
12268;DHT22;6196;48.398;11.736;2022-10-31T04:04:07;7.80;99.90
12268;DHT22;6196;48.398;11.736;2022-10-31T04:06:36;7.80;99.90
12268;DHT22;6196;48.398;11.736;2022-10-31T04:09:06;7.90;99.90
12268;DHT22;6196;48.398;11.736;2022-10-31T04:11:38;7.80;99.90
12268;DHT22;6196;48.398;11.736;2022-10-31T04:14:08;7.90;99.90
12268;DHT22;6196;48.398;11.736;2022-10-31T04:16:37;7.90;99.90
12268;DHT22;6196;48.398;11.736;2022-10-31T04:19:06;7.90;99.90
12268;DHT22;6196;48.398;11.736;2022-10-31T04:21:33;7.90;99.90
12268;DHT22;6196;48.398;11.736;2022-10-31T04:23:59;7.90;99.90
12268;DHT22;6196;48.398;11.736;2022-10-31T04:26:26;7.90;99.90
12268;DHT22;6196;48.398;11.736;2022-10-31T04:28:53;7.90;99.90
12268;DHT22;6196;48.398;11.736;2022-10-31T04:31:20;7.90;99.90
12268;DHT22;6196;48.398;11.736;2022-10-31T04:33:47;7.90;99.90
12268;DHT22;6196;48.398;11.736;2022-10-31T04:36:13;7.90;99.90
12268;DHT22;6196;48.398;11.736;2022-10-31T04:38:40;7.90;99.90
12268;DHT22;6196;48.398;11.736;2022-10-31T04:41:07;8.00;99.90
12268;DHT22;6196;48.398;11.736;2022-10-31T04:43:34;8.00;99.90
12268;DHT22;6196;48.398;11.736;2022-10-31T04:46:01;7.90;99.90
12268;DHT22;6196;48.398;11.736;2022-10-31T04:48:28;7.90;99.90
12268;DHT22;6196;48.398;11.736;2022-10-31T04:51:01;7.80;99.90
12268;DHT22;6196;48.398;11.736;2022-10-31T04:53:29;7.80;99.90
12268;DHT22;6196;48.398;11.736;2022-10-31T04:55:58;7.80;99.90
12268;DHT22;6196;48.398;11.736;2022-10-31T04:58:26;7.80;99.90
12268;DHT22;6196;48.398;11.736;2022-10-31T05:00:54;7.90;99.90
12268;DHT22;6196;48.398;11.736;2022-10-31T05:03:22;8.00;99.90
12268;DHT22;6196;48.398;11.736;2022-10-31T05:05:49;8.00;99.90
12268;DHT22;6196;48.398;11.736;2022-10-31T05:08:16;8.10;99.90
12268;DHT22;6196;48.398;11.736;2022-10-31T05:10:43;8.10;99.90
12268;DHT22;6196;48.398;11.736;2022-10-31T05:13:10;8.10;99.90
12268;DHT22;6196;48.398;11.736;2022-10-31T05:15:36;8.20;99.90
12268;DHT22;6196;48.398;11.736;2022-10-31T05:18:03;8.20;99.90
12268;DHT22;6196;48.398;11.736;2022-10-31T05:20:31;8.20;99.90
12268;DHT22;6196;48.398;11.736;2022-10-31T05:22:58;8.00;99.90
12268;DHT22;6196;48.398;11.736;2022-10-31T05:25:27;7.90;99.90
12268;DHT22;6196;48.398;11.736;2022-10-31T05:27:55;7.90;99.90
12268;DHT22;6196;48.398;11.736;2022-10-31T05:30:26;7.90;99.90
12268;DHT22;6196;48.398;11.736;2022-10-31T05:32:55;7.90;99.90
12268;DHT22;6196;48.398;11.736;2022-10-31T05:35:26;8.00;99.90
12268;DHT22;6196;48.398;11.736;2022-10-31T05:37:54;7.90;99.90
12268;DHT22;6196;48.398;11.736;2022-10-31T05:40:21;7.80;99.90
12268;DHT22;6196;48.398;11.736;2022-10-31T05:42:51;7.70;99.90
12268;DHT22;6196;48.398;11.736;2022-10-31T05:45:19;7.70;99.90
12268;DHT22;6196;48.398;11.736;2022-10-31T05:47:57;7.60;99.90
12268;DHT22;6196;48.398;11.736;2022-10-31T05:50:27;7.60;99.90
12268;DHT22;6196;48.398;11.736;2022-10-31T05:53:00;7.70;99.90
12268;DHT22;6196;48.398;11.736;2022-10-31T05:55:29;7.70;99.90
12268;DHT22;6196;48.398;11.736;2022-10-31T05:57:56;7.80;99.90
12268;DHT22;6196;48.398;11.736;2022-10-31T06:00:25;7.80;99.90
12268;DHT22;6196;48.398;11.736;2022-10-31T06:03:04;7.90;99.90
12268;DHT22;6196;48.398;11.736;2022-10-31T06:05:40;7.90;99.90
12268;DHT22;6196;48.398;11.736;2022-10-31T06:08:07;7.90;99.90
12268;DHT22;6196;48.398;11.736;2022-10-31T06:10:34;7.80;99.90
12268;DHT22;6196;48.398;11.736;2022-10-31T06:13:01;7.80;99.90
12268;DHT22;6196;48.398;11.736;2022-10-31T06:15:27;7.80;99.90
12268;DHT22;6196;48.398;11.736;2022-10-31T06:18:12;7.80;99.90
12268;DHT22;6196;48.398;11.736;2022-10-31T06:20:39;7.80;99.90
12268;DHT22;6196;48.398;11.736;2022-10-31T06:23:06;7.90;99.90
12268;DHT22;6196;48.398;11.736;2022-10-31T06:25:33;8.00;99.90
12268;DHT22;6196;48.398;11.736;2022-10-31T06:28:00;8.00;99.90
12268;DHT22;6196;48.398;11.736;2022-10-31T06:30:27;8.20;99.90
12268;DHT22;6196;48.398;11.736;2022-10-31T06:32:53;8.30;99.90
12268;DHT22;6196;48.398;11.736;2022-10-31T06:35:20;8.30;99.90
12268;DHT22;6196;48.398;11.736;2022-10-31T06:37:53;8.30;99.90
12268;DHT22;6196;48.398;11.736;2022-10-31T06:40:20;8.30;99.90
12268;DHT22;6196;48.398;11.736;2022-10-31T06:42:47;8.40;99.90
12268;DHT22;6196;48.398;11.736;2022-10-31T06:45:14;8.50;99.90
12268;DHT22;6196;48.398;11.736;2022-10-31T06:47:41;8.70;99.90
12268;DHT22;6196;48.398;11.736;2022-10-31T06:50:27;8.90;99.90
12268;DHT22;6196;48.398;11.736;2022-10-31T06:52:57;9.20;99.90
12268;DHT22;6196;48.398;11.736;2022-10-31T06:55:26;9.30;99.90
12268;DHT22;6196;48.398;11.736;2022-10-31T06:57:55;9.40;99.90
12268;DHT22;6196;48.398;11.736;2022-10-31T07:00:29;9.40;99.90
12268;DHT22;6196;48.398;11.736;2022-10-31T07:03:02;9.40;99.90
12268;DHT22;6196;48.398;11.736;2022-10-31T07:05:30;9.40;99.90
12268;DHT22;6196;48.398;11.736;2022-10-31T07:07:59;9.30;99.90
12268;DHT22;6196;48.398;11.736;2022-10-31T07:10:30;9.40;99.90
12268;DHT22;6196;48.398;11.736;2022-10-31T07:13:06;9.40;99.90
12268;DHT22;6196;48.398;11.736;2022-10-31T07:15:37;9.40;99.90
12268;DHT22;6196;48.398;11.736;2022-10-31T07:18:08;9.50;99.90
12268;DHT22;6196;48.398;11.736;2022-10-31T07:20:36;9.50;99.90
12268;DHT22;6196;48.398;11.736;2022-10-31T07:23:03;9.60;99.90
12268;DHT22;6196;48.398;11.736;2022-10-31T07:25:31;9.70;99.90
12268;DHT22;6196;48.398;11.736;2022-10-31T07:27:58;9.70;99.90
12268;DHT22;6196;48.398;11.736;2022-10-31T07:30:25;9.70;99.90
12268;DHT22;6196;48.398;11.736;2022-10-31T07:32:52;10.00;99.90
12268;DHT22;6196;48.398;11.736;2022-10-31T07:35:24;10.20;99.90
12268;DHT22;6196;48.398;11.736;2022-10-31T07:37:53;10.40;99.90
12268;DHT22;6196;48.398;11.736;2022-10-31T07:40:22;10.60;99.90
12268;DHT22;6196;48.398;11.736;2022-10-31T07:42:51;10.80;99.90
12268;DHT22;6196;48.398;11.736;2022-10-31T07:45:20;11.10;99.90
12268;DHT22;6196;48.398;11.736;2022-10-31T07:47:49;11.30;99.90
12268;DHT22;6196;48.398;11.736;2022-10-31T07:50:23;11.60;99.90
12268;DHT22;6196;48.398;11.736;2022-10-31T07:53:05;11.70;99.90
12268;DHT22;6196;48.398;11.736;2022-10-31T07:55:37;11.90;99.90
12268;DHT22;6196;48.398;11.736;2022-10-31T07:58:11;12.30;99.90
12268;DHT22;6196;48.398;11.736;2022-10-31T08:00:43;12.60;99.90
12268;DHT22;6196;48.398;11.736;2022-10-31T08:03:13;12.90;99.90
12268;DHT22;6196;48.398;11.736;2022-10-31T08:05:42;13.10;99.90
12268;DHT22;6196;48.398;11.736;2022-10-31T08:08:12;13.50;99.90
12268;DHT22;6196;48.398;11.736;2022-10-31T08:10:40;13.70;99.90
12268;DHT22;6196;48.398;11.736;2022-10-31T08:13:11;13.90;99.90
12268;DHT22;6196;48.398;11.736;2022-10-31T08:15:39;14.40;99.90
12268;DHT22;6196;48.398;11.736;2022-10-31T08:18:13;14.90;99.90
12268;DHT22;6196;48.398;11.736;2022-10-31T08:20:41;15.50;99.90
12268;DHT22;6196;48.398;11.736;2022-10-31T08:23:10;15.80;99.90
12268;DHT22;6196;48.398;11.736;2022-10-31T08:25:37;16.20;99.90
12268;DHT22;6196;48.398;11.736;2022-10-31T08:28:05;16.80;99.90
12268;DHT22;6196;48.398;11.736;2022-10-31T08:30:34;17.30;99.90
12268;DHT22;6196;48.398;11.736;2022-10-31T08:33:06;17.50;99.90
12268;DHT22;6196;48.398;11.736;2022-10-31T08:35:37;17.70;99.90
12268;DHT22;6196;48.398;11.736;2022-10-31T08:38:04;17.80;99.90
12268;DHT22;6196;48.398;11.736;2022-10-31T08:40:32;18.20;99.90
12268;DHT22;6196;48.398;11.736;2022-10-31T08:45:33;18.20;99.90
12268;DHT22;6196;48.398;11.736;2022-10-31T08:48:06;18.30;99.90
12268;DHT22;6196;48.398;11.736;2022-10-31T08:50:36;18.20;99.90
12268;DHT22;6196;48.398;11.736;2022-10-31T08:53:06;19.00;99.90
12268;DHT22;6196;48.398;11.736;2022-10-31T08:55:40;19.20;99.90
12268;DHT22;6196;48.398;11.736;2022-10-31T08:58:10;19.00;99.90
12268;DHT22;6196;48.398;11.736;2022-10-31T09:00:42;19.80;99.90
12268;DHT22;6196;48.398;11.736;2022-10-31T09:03:12;20.30;99.90
12268;DHT22;6196;48.398;11.736;2022-10-31T09:05:40;20.60;99.90
12268;DHT22;6196;48.398;11.736;2022-10-31T09:08:08;21.10;99.90
12268;DHT22;6196;48.398;11.736;2022-10-31T09:10:42;21.70;99.90
12268;DHT22;6196;48.398;11.736;2022-10-31T09:13:11;21.20;99.90
12268;DHT22;6196;48.398;11.736;2022-10-31T09:15:40;20.10;99.90
12268;DHT22;6196;48.398;11.736;2022-10-31T09:18:11;20.30;99.90
12268;DHT22;6196;48.398;11.736;2022-10-31T09:20:39;20.70;99.90
12268;DHT22;6196;48.398;11.736;2022-10-31T09:23:10;20.80;99.90
12268;DHT22;6196;48.398;11.736;2022-10-31T09:25:37;21.00;99.90
12268;DHT22;6196;48.398;11.736;2022-10-31T09:28:06;21.60;99.90
12268;DHT22;6196;48.398;11.736;2022-10-31T09:30:34;21.30;99.90
12268;DHT22;6196;48.398;11.736;2022-10-31T09:33:08;21.50;99.90
12268;DHT22;6196;48.398;11.736;2022-10-31T09:35:37;21.60;99.90
12268;DHT22;6196;48.398;11.736;2022-10-31T09:38:06;22.00;99.90
12268;DHT22;6196;48.398;11.736;2022-10-31T09:40:40;22.50;99.90
12268;DHT22;6196;48.398;11.736;2022-10-31T09:43:14;22.90;99.90
12268;DHT22;6196;48.398;11.736;2022-10-31T09:49:26;23.80;99.90
12268;DHT22;6196;48.398;11.736;2022-10-31T09:54:59;24.80;99.90
12268;DHT22;6196;48.398;11.736;2022-10-31T09:57:33;24.70;99.90
12268;DHT22;6196;48.398;11.736;2022-10-31T10:00:03;24.80;99.90
12268;DHT22;6196;48.398;11.736;2022-10-31T10:05:24;25.30;99.90
12268;DHT22;6196;48.398;11.736;2022-10-31T10:08:16;25.10;99.90
12268;DHT22;6196;48.398;11.736;2022-10-31T10:11:01;25.10;99.90
12268;DHT22;6196;48.398;11.736;2022-10-31T10:16:56;25.40;99.90
12268;DHT22;6196;48.398;11.736;2022-10-31T10:25:22;24.60;99.90
12268;DHT22;6196;48.398;11.736;2022-10-31T10:30:44;24.90;99.90
12268;DHT22;6196;48.398;11.736;2022-10-31T10:35:57;25.00;99.90
12268;DHT22;6196;48.398;11.736;2022-10-31T10:41:32;24.10;99.90
12268;DHT22;6196;48.398;11.736;2022-10-31T10:44:00;23.60;99.90
12268;DHT22;6196;48.398;11.736;2022-10-31T10:46:40;23.20;99.90
12268;DHT22;6196;48.398;11.736;2022-10-31T10:49:48;22.90;99.90
12268;DHT22;6196;48.398;11.736;2022-10-31T10:55:43;23.00;99.90
12268;DHT22;6196;48.398;11.736;2022-10-31T10:58:25;22.80;99.90
12268;DHT22;6196;48.398;11.736;2022-10-31T11:00:54;23.00;99.90
12268;DHT22;6196;48.398;11.736;2022-10-31T11:03:21;23.30;99.90
12268;DHT22;6196;48.398;11.736;2022-10-31T11:05:56;22.90;99.90
12268;DHT22;6196;48.398;11.736;2022-10-31T11:08:33;23.00;99.90
12268;DHT22;6196;48.398;11.736;2022-10-31T11:13:46;22.90;99.90
12268;DHT22;6196;48.398;11.736;2022-10-31T11:18:54;23.20;99.90
12268;DHT22;6196;48.398;11.736;2022-10-31T11:21:33;23.40;99.90
12268;DHT22;6196;48.398;11.736;2022-10-31T11:24:16;23.00;99.90
12268;DHT22;6196;48.398;11.736;2022-10-31T11:26:47;22.70;99.90
12268;DHT22;6196;48.398;11.736;2022-10-31T11:31:59;22.60;99.90
12268;DHT22;6196;48.398;11.736;2022-10-31T11:34:30;22.40;99.90
12268;DHT22;6196;48.398;11.736;2022-10-31T11:37:25;22.20;99.90
12268;DHT22;6196;48.398;11.736;2022-10-31T11:39:56;21.90;99.90
12268;DHT22;6196;48.398;11.736;2022-10-31T11:42:27;21.60;99.90
12268;DHT22;6196;48.398;11.736;2022-10-31T11:44:56;21.70;99.90
12268;DHT22;6196;48.398;11.736;2022-10-31T11:47:28;21.70;99.90
12268;DHT22;6196;48.398;11.736;2022-10-31T11:49:57;21.70;99.90
12268;DHT22;6196;48.398;11.736;2022-10-31T11:52:29;21.60;99.90
12268;DHT22;6196;48.398;11.736;2022-10-31T11:57:45;21.20;99.90
12268;DHT22;6196;48.398;11.736;2022-10-31T12:00:30;21.10;99.90
12268;DHT22;6196;48.398;11.736;2022-10-31T12:03:38;21.20;99.90
12268;DHT22;6196;48.398;11.736;2022-10-31T12:06:20;21.30;99.90
12268;DHT22;6196;48.398;11.736;2022-10-31T12:08:49;21.30;99.90
12268;DHT22;6196;48.398;11.736;2022-10-31T12:11:42;21.40;99.90
12268;DHT22;6196;48.398;11.736;2022-10-31T12:17:16;21.50;99.90
12268;DHT22;6196;48.398;11.736;2022-10-31T12:28:26;21.80;99.90
12268;DHT22;6196;48.398;11.736;2022-10-31T12:31:23;22.10;99.90
12268;DHT22;6196;48.398;11.736;2022-10-31T12:36:57;22.70;99.90
12268;DHT22;6196;48.398;11.736;2022-10-31T12:42:46;22.80;99.90
12268;DHT22;6196;48.398;11.736;2022-10-31T12:45:50;23.00;99.90
12268;DHT22;6196;48.398;11.736;2022-10-31T13:00:04;21.60;99.90
12268;DHT22;6196;48.398;11.736;2022-10-31T13:06:02;21.10;99.90
12268;DHT22;6196;48.398;11.736;2022-10-31T13:08:39;21.20;99.90
12268;DHT22;6196;48.398;11.736;2022-10-31T13:17:02;22.10;99.90
12268;DHT22;6196;48.398;11.736;2022-10-31T13:19:43;22.20;99.90
12268;DHT22;6196;48.398;11.736;2022-10-31T13:22:12;22.70;99.90
12268;DHT22;6196;48.398;11.736;2022-10-31T13:25:09;23.20;99.90
12268;DHT22;6196;48.398;11.736;2022-10-31T13:28:03;24.10;99.90
12268;DHT22;6196;48.398;11.736;2022-10-31T13:30:39;25.40;99.90
12268;DHT22;6196;48.398;11.736;2022-10-31T13:33:42;27.40;99.90
12268;DHT22;6196;48.398;11.736;2022-10-31T13:36:26;28.90;99.90
12268;DHT22;6196;48.398;11.736;2022-10-31T13:39:40;29.30;99.90
12268;DHT22;6196;48.398;11.736;2022-10-31T13:42:41;28.50;99.90
12268;DHT22;6196;48.398;11.736;2022-10-31T13:45:31;27.40;99.90
12268;DHT22;6196;48.398;11.736;2022-10-31T13:48:28;27.00;99.90
12268;DHT22;6196;48.398;11.736;2022-10-31T13:51:06;26.70;99.90
12268;DHT22;6196;48.398;11.736;2022-10-31T13:53:43;26.20;99.90
12268;DHT22;6196;48.398;11.736;2022-10-31T13:56:15;26.00;99.90
12268;DHT22;6196;48.398;11.736;2022-10-31T14:04:26;24.10;99.90
12268;DHT22;6196;48.398;11.736;2022-10-31T14:07:13;23.50;99.90
12268;DHT22;6196;48.398;11.736;2022-10-31T14:13:14;22.60;99.90
12268;DHT22;6196;48.398;11.736;2022-10-31T14:16:05;21.80;99.90
12268;DHT22;6196;48.398;11.736;2022-10-31T14:19:06;21.10;99.90
12268;DHT22;6196;48.398;11.736;2022-10-31T14:21:46;20.70;99.90
12268;DHT22;6196;48.398;11.736;2022-10-31T14:27:00;20.60;99.90
12268;DHT22;6196;48.398;11.736;2022-10-31T14:29:50;20.50;99.90
12268;DHT22;6196;48.398;11.736;2022-10-31T14:32:23;20.50;99.90
12268;DHT22;6196;48.398;11.736;2022-10-31T14:37:28;21.40;99.90
12268;DHT22;6196;48.398;11.736;2022-10-31T14:43:05;21.40;99.90
12268;DHT22;6196;48.398;11.736;2022-10-31T14:49:08;20.50;99.90
12268;DHT22;6196;48.398;11.736;2022-10-31T14:51:46;20.30;99.90
12268;DHT22;6196;48.398;11.736;2022-10-31T14:54:29;20.00;99.90
12268;DHT22;6196;48.398;11.736;2022-10-31T14:57:29;19.70;99.90
12268;DHT22;6196;48.398;11.736;2022-10-31T15:00:04;19.50;99.90
12268;DHT22;6196;48.398;11.736;2022-10-31T15:05:20;18.90;99.90
12268;DHT22;6196;48.398;11.736;2022-10-31T15:07:55;18.90;99.90
12268;DHT22;6196;48.398;11.736;2022-10-31T15:10:31;18.70;99.90
12268;DHT22;6196;48.398;11.736;2022-10-31T15:13:18;18.50;99.90
12268;DHT22;6196;48.398;11.736;2022-10-31T15:15:49;18.20;99.90
12268;DHT22;6196;48.398;11.736;2022-10-31T15:18:23;17.90;99.90
12268;DHT22;6196;48.398;11.736;2022-10-31T15:20:52;17.90;99.90
12268;DHT22;6196;48.398;11.736;2022-10-31T15:23:27;18.00;99.90
12268;DHT22;6196;48.398;11.736;2022-10-31T15:26:01;17.90;99.90
12268;DHT22;6196;48.398;11.736;2022-10-31T15:28:31;17.90;99.90
12268;DHT22;6196;48.398;11.736;2022-10-31T15:31:00;17.70;99.90
12268;DHT22;6196;48.398;11.736;2022-10-31T15:33:39;17.70;99.90
12268;DHT22;6196;48.398;11.736;2022-10-31T15:36:22;17.60;99.90
12268;DHT22;6196;48.398;11.736;2022-10-31T15:38:57;17.60;99.90
12268;DHT22;6196;48.398;11.736;2022-10-31T15:41:32;17.50;99.90
12268;DHT22;6196;48.398;11.736;2022-10-31T15:44:15;17.50;99.90
12268;DHT22;6196;48.398;11.736;2022-10-31T15:46:43;17.40;99.90
12268;DHT22;6196;48.398;11.736;2022-10-31T15:49:26;17.30;99.90
12268;DHT22;6196;48.398;11.736;2022-10-31T15:51:54;17.20;99.90
12268;DHT22;6196;48.398;11.736;2022-10-31T15:54:21;17.10;99.90
12268;DHT22;6196;48.398;11.736;2022-10-31T15:56:48;17.00;99.90
12268;DHT22;6196;48.398;11.736;2022-10-31T15:59:26;16.90;99.90
12268;DHT22;6196;48.398;11.736;2022-10-31T16:02:02;16.80;99.90
12268;DHT22;6196;48.398;11.736;2022-10-31T16:04:34;16.60;99.90
12268;DHT22;6196;48.398;11.736;2022-10-31T16:07:15;16.50;99.90
12268;DHT22;6196;48.398;11.736;2022-10-31T16:10:00;16.40;99.90
12268;DHT22;6196;48.398;11.736;2022-10-31T16:12:33;16.30;99.90
12268;DHT22;6196;48.398;11.736;2022-10-31T16:15:04;16.20;99.90
12268;DHT22;6196;48.398;11.736;2022-10-31T16:17:31;16.10;99.90
12268;DHT22;6196;48.398;11.736;2022-10-31T16:20:03;16.10;99.90
12268;DHT22;6196;48.398;11.736;2022-10-31T16:22:36;16.00;99.90
12268;DHT22;6196;48.398;11.736;2022-10-31T16:25:11;15.80;99.90
12268;DHT22;6196;48.398;11.736;2022-10-31T16:27:46;15.80;99.90
12268;DHT22;6196;48.398;11.736;2022-10-31T16:30:38;15.80;99.90
12268;DHT22;6196;48.398;11.736;2022-10-31T16:35:54;15.60;99.90
12268;DHT22;6196;48.398;11.736;2022-10-31T16:38:41;15.50;99.90
12268;DHT22;6196;48.398;11.736;2022-10-31T16:41:08;15.40;99.90
12268;DHT22;6196;48.398;11.736;2022-10-31T16:43:35;15.30;99.90
12268;DHT22;6196;48.398;11.736;2022-10-31T16:46:01;15.30;99.90
12268;DHT22;6196;48.398;11.736;2022-10-31T16:48:28;15.20;99.90
12268;DHT22;6196;48.398;11.736;2022-10-31T16:50:55;15.10;99.90
12268;DHT22;6196;48.398;11.736;2022-10-31T16:53:22;15.00;99.90
12268;DHT22;6196;48.398;11.736;2022-10-31T16:55:59;14.90;99.90
12268;DHT22;6196;48.398;11.736;2022-10-31T16:58:31;14.80;99.90
12268;DHT22;6196;48.398;11.736;2022-10-31T17:01:05;14.70;99.90
12268;DHT22;6196;48.398;11.736;2022-10-31T17:03:33;14.50;99.90
12268;DHT22;6196;48.398;11.736;2022-10-31T17:06:00;14.30;99.90
12268;DHT22;6196;48.398;11.736;2022-10-31T17:08:27;14.20;99.90
12268;DHT22;6196;48.398;11.736;2022-10-31T17:10:55;14.00;99.90
12268;DHT22;6196;48.398;11.736;2022-10-31T17:13:27;13.90;99.90
12268;DHT22;6196;48.398;11.736;2022-10-31T17:15:58;13.90;99.90
12268;DHT22;6196;48.398;11.736;2022-10-31T17:18:27;13.90;99.90
12268;DHT22;6196;48.398;11.736;2022-10-31T17:20:55;13.90;99.90
12268;DHT22;6196;48.398;11.736;2022-10-31T17:23:25;13.90;99.90
12268;DHT22;6196;48.398;11.736;2022-10-31T17:25:53;13.90;99.90
12268;DHT22;6196;48.398;11.736;2022-10-31T17:28:21;13.90;99.90
12268;DHT22;6196;48.398;11.736;2022-10-31T17:30:48;13.90;99.90
12268;DHT22;6196;48.398;11.736;2022-10-31T17:33:15;13.80;99.90
12268;DHT22;6196;48.398;11.736;2022-10-31T17:35:43;13.80;99.90
12268;DHT22;6196;48.398;11.736;2022-10-31T17:38:10;13.80;99.90
12268;DHT22;6196;48.398;11.736;2022-10-31T17:40:38;13.70;99.90
12268;DHT22;6196;48.398;11.736;2022-10-31T17:43:10;13.80;99.90
12268;DHT22;6196;48.398;11.736;2022-10-31T17:45:40;13.70;99.90
12268;DHT22;6196;48.398;11.736;2022-10-31T17:48:11;13.80;99.90
12268;DHT22;6196;48.398;11.736;2022-10-31T17:50:38;13.60;99.90
12268;DHT22;6196;48.398;11.736;2022-10-31T17:53:05;13.60;99.90
12268;DHT22;6196;48.398;11.736;2022-10-31T17:55:32;13.60;99.90
12268;DHT22;6196;48.398;11.736;2022-10-31T17:58:03;13.50;99.90
12268;DHT22;6196;48.398;11.736;2022-10-31T18:00:31;13.50;99.90
12268;DHT22;6196;48.398;11.736;2022-10-31T18:02:58;13.50;99.90
12268;DHT22;6196;48.398;11.736;2022-10-31T18:05:26;13.50;99.90
12268;DHT22;6196;48.398;11.736;2022-10-31T18:07:53;13.40;99.90
12268;DHT22;6196;48.398;11.736;2022-10-31T18:10:22;13.50;99.90
12268;DHT22;6196;48.398;11.736;2022-10-31T18:12:50;13.40;99.90
12268;DHT22;6196;48.398;11.736;2022-10-31T18:15:17;13.40;99.90
12268;DHT22;6196;48.398;11.736;2022-10-31T18:17:46;13.50;99.90
12268;DHT22;6196;48.398;11.736;2022-10-31T18:20:12;13.30;99.90
12268;DHT22;6196;48.398;11.736;2022-10-31T18:22:39;13.30;99.90